»·PEaware :: RNGR703 KNGP-KNGP

RNGR703 :: KNGP-KNGP

FLIGHT INFORMATION

Flight Status: Arrived
Operator: Unknown
More flights by this operator :: More flights under this callsign
Pilot: USN Avenger (31125)
Aircraft: BEECH AIRCRAFT T-6A TEXAN
(TEX2)
More flights by this aircraft type
Origin: KNGP Corpus Christi NAS/Truax
United States
Destination: KNGP Corpus Christi NAS/Truax
United States
More flights between these airports :: More routes between these airports
Route: RUSTY KINGS4 MOA KNGT
File this flight plan on PilotEdge
Remarks:
Altitude:
(Current/Filed)
14,500ft
Speed:
(Current/Filed)
200kts
Departed: 16-Nov-23 11:47 AM
Arrived: 16-Nov-23 01:06 PM
Distance/Time
Traveled:
1nm/1:19
Distance/Time
To Go:
Arrived

Flight Plot

Page will automatically refresh every two minutes.

Flight plan parsing failed; only flown route is shown


Map Options




Map Legend


Flown Route
Filed Route
Departure Airport
Arrival Airport
Navaid (VOR, NDB)
Fix

Horizontal Profiles

Position Reports

Time Latitude Longitude Heading Altitude Ground
Speed
16-Nov-23 11:37 27.698542 -97.284284 158 22ft 0kts
16-Nov-23 11:38 27.698540 -97.284284 158 22ft 0kts
16-Nov-23 11:39 27.698539 -97.284283 158 22ft 0kts
16-Nov-23 11:40 27.698537 -97.284282 158 22ft 0kts
16-Nov-23 11:41 27.698263 -97.284928 253 22ft 10kts
16-Nov-23 11:42 27.699287 -97.286647 225 22ft 9kts
16-Nov-23 11:43 27.696368 -97.289976 226 22ft 21kts
16-Nov-23 11:44 27.695491 -97.291153 224 22ft 9kts
16-Nov-23 11:45 27.694739 -97.291181 135 22ft 34kts
16-Nov-23 11:46 27.670443 -97.259586 129 560ft 209kts
16-Nov-23 11:47 27.668576 -97.215438 2 1849ft 187kts
16-Nov-23 11:48 27.720310 -97.213016 348 4380ft 194kts
16-Nov-23 11:49 27.776826 -97.228090 347 5517ft 240kts
16-Nov-23 11:50 27.845788 -97.246258 346 5478ft 256kts
16-Nov-23 11:51 27.913776 -97.249370 10 6739ft 225kts
16-Nov-23 11:52 27.971761 -97.239062 9 9499ft 199kts
16-Nov-23 11:53 28.028065 -97.225619 11 11583ft 210kts
16-Nov-23 11:54 28.086271 -97.217261 341 13536ft 214kts
16-Nov-23 11:55 28.137106 -97.258513 322 14567ft 250kts
16-Nov-23 11:56 28.197726 -97.308085 323 14412ft 270kts
16-Nov-23 11:57 28.259933 -97.358032 334 13535ft 279kts
16-Nov-23 11:58 28.330288 -97.361324 306 13584ft 280kts
16-Nov-23 11:59 28.305204 -97.436586 228 13584ft 265kts
16-Nov-23 12:00 28.306766 -97.449842 46 13056ft 254kts
16-Nov-23 12:01 28.316322 -97.438345 46 13052ft 259kts
16-Nov-23 12:02 28.336814 -97.379144 126 13093ft 200kts
16-Nov-23 12:03 28.322536 -97.358520 129 13013ft 155kts
16-Nov-23 12:04 28.292300 -97.327859 185 11768ft 141kts
16-Nov-23 12:05 28.303462 -97.351627 329 10040ft 136kts
16-Nov-23 12:06 28.334032 -97.380047 314 9847ft 138kts
16-Nov-23 12:07 28.360471 -97.412598 312 10023ft 132kts
16-Nov-23 12:08 28.351393 -97.431070 206 9997ft 125kts
16-Nov-23 12:09 28.351393 -97.431070 206 9997ft 125kts
16-Nov-23 12:10 28.330700 -97.446690 237 10054ft 139kts
16-Nov-23 12:11 28.309142 -97.477930 153 9763ft 105kts
16-Nov-23 12:12 28.287898 -97.446213 127 10016ft 139kts
16-Nov-23 12:13 28.266167 -97.414472 130 9619ft 87kts
16-Nov-23 12:14 28.256670 -97.403268 141 9561ft 126kts
16-Nov-23 12:15 28.246135 -97.381570 55 10393ft 167kts
16-Nov-23 12:16 28.296124 -97.403625 323 10740ft 231kts
16-Nov-23 12:17 28.330103 -97.435844 304 11352ft 145kts
16-Nov-23 12:18 28.360455 -97.487565 301 11931ft 240kts
16-Nov-23 12:19 28.352550 -97.561151 241 9762ft 230kts
16-Nov-23 12:20 28.363305 -97.619776 332 4091ft 213kts
16-Nov-23 12:21 28.417093 -97.622661 13 1250ft 179kts
16-Nov-23 12:22 28.469698 -97.612163 6 1347ft 212kts
16-Nov-23 12:23 28.527034 -97.597356 76 1386ft 216kts
16-Nov-23 12:24 28.538669 -97.532961 69 1358ft 214kts
16-Nov-23 12:25 28.568762 -97.469451 15 1438ft 236kts
16-Nov-23 12:26 28.593432 -97.527351 284 1414ft 238kts
16-Nov-23 12:27 28.613228 -97.597815 290 1206ft 214kts
16-Nov-23 12:28 28.641282 -97.587724 108 1413ft 238kts
16-Nov-23 12:29 28.594910 -97.539136 185 1347ft 249kts
16-Nov-23 12:30 28.533648 -97.571704 210 1282ft 240kts
16-Nov-23 12:31 28.559073 -97.607654 347 1335ft 214kts
16-Nov-23 12:32 28.615910 -97.619491 350 1277ft 202kts
16-Nov-23 12:33 28.601467 -97.629493 171 1015ft 120kts
16-Nov-23 12:34 28.591583 -97.616352 347 474ft 109kts
16-Nov-23 12:35 28.621763 -97.622192 349 763ft 141kts
16-Nov-23 12:36 28.629234 -97.639184 173 1105ft 130kts
16-Nov-23 12:37 28.595414 -97.631829 168 1090ft 121kts
16-Nov-23 12:38 28.596440 -97.617315 349 385ft 110kts
16-Nov-23 12:39 28.625284 -97.627825 277 1094ft 126kts
16-Nov-23 12:40 28.594904 -97.631436 164 1117ft 117kts
16-Nov-23 12:41 28.594471 -97.616971 350 434ft 110kts
16-Nov-23 12:42 28.625920 -97.623177 349 839ft 164kts
16-Nov-23 12:43 28.665547 -97.657530 264 2167ft 202kts
16-Nov-23 12:44 28.628920 -97.714512 198 2713ft 251kts
16-Nov-23 12:45 28.566321 -97.687574 145 2492ft 249kts
16-Nov-23 12:46 28.511100 -97.641524 142 2456ft 244kts
16-Nov-23 12:47 28.458684 -97.594516 144 2751ft 236kts
16-Nov-23 12:48 28.405491 -97.546439 134 2464ft 246kts
16-Nov-23 12:49 28.360471 -97.488202 129 2390ft 245kts
16-Nov-23 12:50 28.318178 -97.429001 128 2493ft 242kts
16-Nov-23 12:51 28.272227 -97.372898 134 2497ft 243kts
16-Nov-23 12:52 28.223093 -97.319621 139 2401ft 244kts
16-Nov-23 12:53 28.168223 -97.274606 143 2386ft 243kts
16-Nov-23 12:54 28.113844 -97.229566 145 2405ft 242kts
16-Nov-23 12:55 28.053120 -97.196285 158 2367ft 243kts
16-Nov-23 12:56 27.991461 -97.165359 154 2371ft 244kts
16-Nov-23 12:57 27.930088 -97.131351 154 1037ft 239kts
16-Nov-23 12:58 27.870021 -97.117487 210 925ft 235kts
16-Nov-23 12:59 27.810043 -97.150353 198 880ft 239kts
16-Nov-23 13:00 27.750051 -97.180306 228 882ft 228kts
16-Nov-23 13:01 27.727770 -97.241998 257 942ft 206kts
16-Nov-23 13:02 27.712024 -97.302208 194 916ft 191kts
16-Nov-23 13:03 27.694720 -97.275049 315 661ft 130kts
16-Nov-23 13:04 27.701594 -97.297974 160 214ft 104kts
16-Nov-23 13:05 27.687399 -97.282795 134 22ft 9kts
16-Nov-23 13:06 27.687543 -97.281610 45 22ft 0kts

Navigation Log

Ident Type
Flight plan parsing failed, navigation log unavailable